Time;durP1;ratioP1;P1;durP2;ratioP2;P2;SDS_P1;SDS_P2;PMS_P1;PMS_P2;Temp;Humidity;BMP_temperature;BMP_pressure;BME280_temperature;BME280_humidity;BME280_pressure;Samples;Min_cycle;Max_cycle;Signal;HPM_P1;HPM_P2
2023/12/02 00:01:03;;;;;;;;;;;;;;;-2.42;38.53;100640.94;5054771;28;19916;-58
2023/12/02 00:03:29;;;;;;;;;;;;;;;-2.40;38.94;100649.56;5054396;28;19913;-57
2023/12/02 00:05:54;;;;;;;;;;;;;;;-2.43;39.43;100637.47;5054345;28;19920;-57
2023/12/02 00:08:20;;;;;;;;;;;;;;;-2.44;38.85;100640.22;5036483;28;19913;-56
2023/12/02 00:10:45;;;;;;;;;;;;;;;-2.45;39.56;100639.38;5054453;28;19916;-57
2023/12/02 00:13:11;;;;;;;;;;;;;;;-2.45;38.83;100635.88;5054558;28;19936;-56
2023/12/02 00:15:36;;;;;;;;;;;;;;;-2.45;38.94;100647.28;5054117;28;19919;-57
2023/12/02 00:18:01;;;;;;;;;;;;;;;-2.46;38.54;100644.72;5054045;28;20392;-56
2023/12/02 00:20:27;;;;;;;;;;;;;;;-2.48;38.80;100630.84;5054143;28;20003;-56
2023/12/02 00:22:52;;;;;;;;;;;;;;;-2.48;38.77;100636.94;5054300;28;20017;-59
2023/12/02 00:25:17;;;;;;;;;;;;;;;-2.46;38.46;100631.59;5054269;28;20340;-58
2023/12/02 00:27:43;;;;;;;;;;;;;;;-2.48;39.12;100631.69;5054288;28;19920;-58
2023/12/02 00:30:08;;;;;;;;;;;;;;;-2.48;38.69;100626.44;5054150;28;19917;-56
2023/12/02 00:32:34;;;;;;;;;;;;;;;-2.52;38.62;100624.97;5053921;28;19913;-57
2023/12/02 00:34:59;;;;;;;;;;;;;;;-2.55;38.80;100636.50;5053840;28;20099;-58
2023/12/02 00:37:24;;;;;;;;;;;;;;;-2.58;39.03;100633.25;5066292;28;19920;-56
2023/12/02 00:39:50;;;;;;;;;;;;;;;-2.64;38.76;100631.88;5067324;28;19913;-55
2023/12/02 00:42:16;;;;;;;;;;;;;;;-2.65;38.95;100637.28;5053702;28;19917;-56
2023/12/02 00:44:41;;;;;;;;;;;;;;;-2.67;39.10;100641.78;5053691;28;19962;-57
2023/12/02 00:47:07;;;;;;;;;;;;;;;-2.70;38.24;100637.56;5053732;28;19934;-57
2023/12/02 00:49:32;;;;;;;;;;;;;;;-2.72;39.37;100639.47;5054245;28;19956;-58
2023/12/02 00:51:58;;;;;;;;;;;;;;;-2.74;38.65;100636.94;5055452;28;19986;-56
2023/12/02 00:54:23;;;;;;;;;;;;;;;-2.77;39.02;100637.16;5054525;28;19917;-55
2023/12/02 00:56:49;;;;;;;;;;;;;;;-2.77;39.18;100634.53;5054202;28;19920;-53
2023/12/02 00:59:14;;;;;;;;;;;;;;;-2.79;38.79;100630.31;5053891;28;19912;-57
2023/12/02 01:01:39;;;;;;;;;;;;;;;-2.81;38.59;100638.28;5052551;28;19912;-56
2023/12/02 01:04:05;;;;;;;;;;;;;;;-2.81;39.26;100634.81;5053468;28;20062;-56
2023/12/02 01:06:30;;;;;;;;;;;;;;;-2.84;39.00;100642.91;5053472;28;20007;-57
2023/12/02 01:08:55;;;;;;;;;;;;;;;-2.85;39.16;100638.63;5053462;28;19920;-55
2023/12/02 01:11:21;;;;;;;;;;;;;;;-2.87;39.06;100633.44;5053744;28;19921;-56
2023/12/02 01:13:46;;;;;;;;;;;;;;;-2.84;39.17;100637.66;5053360;28;20316;-57
2023/12/02 01:16:11;;;;;;;;;;;;;;;-2.83;38.62;100639.34;5053232;28;19936;-56
2023/12/02 01:18:37;;;;;;;;;;;;;;;-2.85;39.20;100636.81;5053307;28;20269;-57
2023/12/02 01:21:02;;;;;;;;;;;;;;;-2.87;38.81;100630.00;5053440;28;19913;-56
2023/12/02 01:23:27;;;;;;;;;;;;;;;-2.90;39.57;100625.75;5053027;28;19936;-57
2023/12/02 01:25:53;;;;;;;;;;;;;;;-2.86;39.01;100629.91;5053073;28;19944;-55
2023/12/02 01:28:19;;;;;;;;;;;;;;;-2.83;39.59;100631.47;5053409;28;19958;-55
2023/12/02 01:30:44;;;;;;;;;;;;;;;-2.82;39.73;100628.75;5053211;28;19974;-57
2023/12/02 01:33:09;;;;;;;;;;;;;;;-2.78;39.91;100621.50;5061746;28;20388;-58
2023/12/02 01:35:35;;;;;;;;;;;;;;;-2.75;39.47;100621.25;5064805;28;19921;-55
2023/12/02 01:38:00;;;;;;;;;;;;;;;-2.71;39.16;100625.38;5052975;28;20003;-58
2023/12/02 01:40:25;;;;;;;;;;;;;;;-2.70;39.79;100624.44;5053098;28;19913;-57
2023/12/02 01:42:51;;;;;;;;;;;;;;;-2.66;39.32;100628.53;5052929;28;19920;-57
2023/12/02 01:45:16;;;;;;;;;;;;;;;-2.63;39.02;100633.59;5053020;28;19913;-56
2023/12/02 01:47:42;;;;;;;;;;;;;;;-2.59;39.00;100621.91;5053000;28;19913;-58
2023/12/02 01:50:08;;;;;;;;;;;;;;;-2.55;39.13;100623.38;5052758;28;20031;-58
2023/12/02 01:52:33;;;;;;;;;;;;;;;-2.51;39.09;100626.63;5052743;28;19913;-57
2023/12/02 01:54:59;;;;;;;;;;;;;;;-2.48;39.15;100620.34;5052305;28;19980;-57
2023/12/02 01:57:24;;;;;;;;;;;;;;;-2.46;39.01;100618.44;5053098;28;19913;-57
2023/12/02 01:59:53;;;;;;;;;;;;;;;-2.42;39.39;100622.53;5052679;28;19913;-57
2023/12/02 02:02:19;;;;;;;;;;;;;;;-2.40;39.16;100624.09;5053004;28;19919;-58
2023/12/02 02:04:44;;;;;;;;;;;;;;;-2.38;38.70;100618.75;5053031;28;20025;-56
2023/12/02 02:07:10;;;;;;;;;;;;;;;-2.37;39.41;100618.63;5052826;28;20374;-58
2023/12/02 02:09:44;;;;;;;;;;;;;;;-2.34;39.48;100626.31;5053052;28;19959;-58
2023/12/02 02:12:09;;;;;;;;;;;;;;;-2.31;39.60;100622.63;5054190;28;19920;-54
2023/12/02 02:14:34;;;;;;;;;;;;;;;-2.27;39.35;100628.53;5056738;28;20434;-57
2023/12/02 02:16:59;;;;;;;;;;;;;;;-2.25;39.55;100621.34;5056721;28;20322;-55
2023/12/02 02:19:25;;;;;;;;;;;;;;;-2.23;39.20;100628.22;5056507;28;19990;-56
2023/12/02 02:21:52;;;;;;;;;;;;;;;-2.20;39.02;100627.16;5056553;28;19956;-55
2023/12/02 02:24:18;;;;;;;;;;;;;;;-2.19;38.83;100627.03;5056510;28;19947;-54
2023/12/02 02:26:44;;;;;;;;;;;;;;;-2.16;39.32;100624.19;5056388;28;20377;-57
2023/12/02 02:29:09;;;;;;;;;;;;;;;-2.17;39.17;100619.88;5062997;28;19918;-54
2023/12/02 02:31:34;;;;;;;;;;;;;;;-2.17;38.91;100625.16;5076206;28;19920;-57
2023/12/02 02:34:00;;;;;;;;;;;;;;;-2.13;39.02;100623.16;5076352;28;19939;-57
2023/12/02 02:36:25;;;;;;;;;;;;;;;-2.13;38.97;100624.94;5061045;28;19919;-57
2023/12/02 02:38:50;;;;;;;;;;;;;;;-2.13;38.76;100630.19;5056397;28;19912;-58
2023/12/02 02:41:18;;;;;;;;;;;;;;;-2.16;39.00;100624.19;5056105;28;20048;-57
2023/12/02 02:43:43;;;;;;;;;;;;;;;-2.17;39.54;100619.06;5056268;28;19920;-57
2023/12/02 02:46:09;;;;;;;;;;;;;;;-2.17;38.84;100614.63;5055939;28;19919;-54
2023/12/02 02:48:34;;;;;;;;;;;;;;;-2.19;39.34;100618.28;5055799;28;19916;-55
2023/12/02 02:50:59;;;;;;;;;;;;;;;-2.22;38.84;100615.91;5055722;28;19944;-57
2023/12/02 02:53:25;;;;;;;;;;;;;;;-2.25;38.67;100621.34;5055679;28;19913;-57
2023/12/02 02:55:50;;;;;;;;;;;;;;;-2.29;38.84;100618.09;5055654;28;20277;-58
2023/12/02 02:58:15;;;;;;;;;;;;;;;-2.34;38.79;100617.56;5055517;28;20003;-57
2023/12/02 03:00:41;;;;;;;;;;;;;;;-2.37;39.02;100609.91;5055505;28;19913;-56
2023/12/02 03:03:06;;;;;;;;;;;;;;;-2.40;39.60;100616.22;5055526;28;19913;-57
2023/12/02 03:05:31;;;;;;;;;;;;;;;-2.43;39.50;100618.25;5055528;28;19913;-55
2023/12/02 03:07:57;;;;;;;;;;;;;;;-2.47;38.92;100619.38;5056001;28;19970;-56
2023/12/02 03:10:22;;;;;;;;;;;;;;;-2.49;39.55;100616.00;5055418;28;19920;-57
2023/12/02 03:12:47;;;;;;;;;;;;;;;-2.54;39.53;100618.97;5055388;28;19925;-57
2023/12/02 03:15:13;;;;;;;;;;;;;;;-2.56;39.45;100618.25;5055306;28;19924;-58
2023/12/02 03:17:38;;;;;;;;;;;;;;;-2.59;39.52;100616.66;5055727;28;19924;-56
2023/12/02 03:20:06;;;;;;;;;;;;;;;-2.63;39.37;100612.56;5055356;28;19962;-57
2023/12/02 03:22:31;;;;;;;;;;;;;;;-2.65;39.92;100617.06;5055292;28;19913;-57
2023/12/02 03:24:56;;;;;;;;;;;;;;;-2.66;39.05;100618.00;5057282;28;19924;-57
2023/12/02 03:27:22;;;;;;;;;;;;;;;-2.68;39.28;100619.06;5075132;28;20010;-58
2023/12/02 03:29:48;;;;;;;;;;;;;;;-2.70;39.03;100618.34;5074969;28;20499;-57
2023/12/02 03:32:13;;;;;;;;;;;;;;;-2.73;39.18;100617.59;5075303;28;19912;-58
2023/12/02 03:34:38;;;;;;;;;;;;;;;-2.75;39.66;100614.25;5074680;28;20383;-58
2023/12/02 03:37:05;;;;;;;;;;;;;;;-2.75;39.63;100619.50;5055204;28;19959;-58
2023/12/02 03:39:30;;;;;;;;;;;;;;;-2.76;39.44;100619.59;5055401;28;20277;-56
2023/12/02 03:41:55;;;;;;;;;;;;;;;-2.76;40.31;100633.56;5054999;28;19913;-57
2023/12/02 03:44:21;;;;;;;;;;;;;;;-2.74;39.80;100620.31;5054986;28;20440;-57
2023/12/02 03:46:46;;;;;;;;;;;;;;;-2.78;40.22;100624.13;5054936;28;19935;-56
2023/12/02 03:49:11;;;;;;;;;;;;;;;-2.75;39.49;100622.13;5054682;28;20239;-57
2023/12/02 03:51:37;;;;;;;;;;;;;;;-2.72;39.83;100626.31;5054793;28;19920;-58
2023/12/02 03:54:02;;;;;;;;;;;;;;;-2.70;39.30;100624.44;5054171;28;20452;-57
2023/12/02 03:56:27;;;;;;;;;;;;;;;-2.72;40.03;100623.69;5054694;28;20246;-57
2023/12/02 03:58:53;;;;;;;;;;;;;;;-2.70;39.39;100623.59;5054756;28;20414;-57
2023/12/02 04:01:18;;;;;;;;;;;;;;;-2.71;39.58;100628.00;5054396;28;20289;-58
2023/12/02 04:03:44;;;;;;;;;;;;;;;-2.70;39.22;100627.06;5054504;28;19961;-57
2023/12/02 04:06:09;;;;;;;;;;;;;;;-2.68;39.75;100626.97;5054517;28;20311;-58
2023/12/02 04:08:35;;;;;;;;;;;;;;;-2.71;39.60;100630.66;5054583;28;19923;-58
2023/12/02 04:11:00;;;;;;;;;;;;;;;-2.74;39.86;100628.22;5054455;28;19928;-56
2023/12/02 04:13:25;;;;;;;;;;;;;;;-2.76;39.84;100628.31;5054378;28;19913;-57
2023/12/02 04:15:51;;;;;;;;;;;;;;;-2.78;39.90;100629.38;5054345;28;19940;-58
2023/12/02 04:18:16;;;;;;;;;;;;;;;-2.81;39.67;100629.56;5054341;28;19971;-57
2023/12/02 04:20:41;;;;;;;;;;;;;;;-2.85;39.57;100633.34;5054374;28;19920;-57
2023/12/02 04:23:07;;;;;;;;;;;;;;;-2.89;39.51;100624.00;5072733;28;20644;-56
2023/12/02 04:25:34;;;;;;;;;;;;;;;-2.92;39.52;100632.91;5074180;28;19918;-56
2023/12/02 04:28:00;;;;;;;;;;;;;;;-2.95;39.96;100628.72;5074299;28;19913;-57
2023/12/02 04:30:25;;;;;;;;;;;;;;;-2.96;39.58;100631.44;5074419;28;20349;-58
2023/12/02 04:32:50;;;;;;;;;;;;;;;-3.00;39.44;100630.81;5073822;28;20258;-57
2023/12/02 04:35:16;;;;;;;;;;;;;;;-3.00;39.87;100630.81;5068417;28;19928;-58
2023/12/02 04:37:41;;;;;;;;;;;;;;;-2.99;39.57;100623.75;5053927;28;19913;-56
2023/12/02 04:40:11;;;;;;;;;;;;;;;-3.05;39.93;100632.88;5053835;28;19920;-56
2023/12/02 04:42:37;;;;;;;;;;;;;;;-3.09;39.65;100639.28;5053655;28;19959;-54
2023/12/02 04:45:03;;;;;;;;;;;;;;;-3.09;39.98;100639.28;5053983;28;19924;-57
2023/12/02 04:47:28;;;;;;;;;;;;;;;-3.11;39.91;100635.94;5053791;28;20007;-56
2023/12/02 04:49:53;;;;;;;;;;;;;;;-3.11;39.62;100633.31;5035993;28;19913;-57
2023/12/02 04:52:19;;;;;;;;;;;;;;;-3.12;40.44;100634.22;5053745;28;19913;-56
2023/12/02 04:54:44;;;;;;;;;;;;;;;-3.10;40.07;100637.63;5052658;28;19916;-57
2023/12/02 04:57:10;;;;;;;;;;;;;;;-3.12;39.87;100632.47;5053875;28;19919;-57
2023/12/02 04:59:35;;;;;;;;;;;;;;;-3.13;40.28;100636.03;5053992;28;19967;-58
2023/12/02 05:02:00;;;;;;;;;;;;;;;-3.14;40.02;100644.00;5053224;28;19946;-58
2023/12/02 05:04:26;;;;;;;;;;;;;;;-3.17;39.44;100639.81;5053827;28;19912;-57
2023/12/02 05:06:51;;;;;;;;;;;;;;;-3.18;40.00;100639.91;5053599;28;20320;-57
2023/12/02 05:09:17;;;;;;;;;;;;;;;-3.21;39.98;100637.47;5053484;28;20003;-58
2023/12/02 05:11:42;;;;;;;;;;;;;;;-3.22;39.16;100646.31;5053224;28;19973;-57
2023/12/02 05:14:08;;;;;;;;;;;;;;;-3.24;39.84;100645.56;5053304;28;19924;-57
2023/12/02 05:16:33;;;;;;;;;;;;;;;-3.25;39.54;100643.88;5053117;28;19996;-57
2023/12/02 05:19:00;;;;;;;;;;;;;;;-3.27;39.81;100651.00;5067781;28;20284;-56
2023/12/02 05:21:25;;;;;;;;;;;;;;;-3.29;39.83;100640.59;5073284;28;19913;-57
2023/12/02 05:23:51;;;;;;;;;;;;;;;-3.33;39.90;100647.81;5073338;28;19920;-57
2023/12/02 05:26:16;;;;;;;;;;;;;;;-3.34;39.97;100653.22;5073241;28;19966;-58
2023/12/02 05:28:42;;;;;;;;;;;;;;;-3.35;39.83;100647.09;5059136;28;19913;-57
2023/12/02 05:31:07;;;;;;;;;;;;;;;-3.37;40.27;100656.03;5052692;28;19917;-57
2023/12/02 05:33:33;;;;;;;;;;;;;;;-3.36;39.96;100649.81;5053189;28;20005;-57
2023/12/02 05:35:58;;;;;;;;;;;;;;;-3.37;40.41;100654.22;5059947;28;19916;-58
2023/12/02 05:38:23;;;;;;;;;;;;;;;-3.42;40.08;100651.06;5053764;28;19913;-57
2023/12/02 05:40:49;;;;;;;;;;;;;;;-3.42;39.51;100645.78;5053033;28;20344;-57
2023/12/02 05:43:14;;;;;;;;;;;;;;;-3.42;39.59;100647.59;5053014;28;19913;-58
2023/12/02 05:45:39;;;;;;;;;;;;;;;-3.42;40.00;100650.22;5053235;28;19936;-58
2023/12/02 05:48:05;;;;;;;;;;;;;;;-3.44;40.11;100647.69;5056313;28;19919;-57
2023/12/02 05:50:31;;;;;;;;;;;;;;;-3.43;40.44;100654.63;5057172;28;19995;-58
2023/12/02 05:52:56;;;;;;;;;;;;;;;-3.43;40.35;100654.63;5039393;28;20353;-59
2023/12/02 05:55:21;;;;;;;;;;;;;;;-3.44;40.46;100655.56;5056506;28;20003;-58
2023/12/02 05:57:47;;;;;;;;;;;;;;;-3.45;39.81;100658.31;5039540;28;19919;-56
2023/12/02 06:00:13;;;;;;;;;;;;;;;-3.47;40.46;100655.78;5057256;28;19912;-58
2023/12/02 06:02:39;;;;;;;;;;;;;;;-3.47;39.79;100652.28;5057194;28;19984;-57
2023/12/02 06:05:05;;;;;;;;;;;;;;;-3.43;40.33;100651.19;5057379;28;19921;-56
2023/12/02 06:07:31;;;;;;;;;;;;;;;-3.48;40.41;100661.13;5057231;28;19974;-55
2023/12/02 06:09:56;;;;;;;;;;;;;;;-3.47;40.64;100668.03;5057361;28;19912;-57
2023/12/02 06:12:22;;;;;;;;;;;;;;;-3.48;39.82;100661.94;5056797;28;19928;-57
2023/12/02 06:14:47;;;;;;;;;;;;;;;-3.47;40.56;100668.03;5068729;28;20374;-57
2023/12/02 06:17:12;;;;;;;;;;;;;;;-3.45;40.26;100664.41;5060807;28;19944;-57
2023/12/02 06:19:38;;;;;;;;;;;;;;;-3.45;40.95;100661.78;5056972;28;19927;-58
2023/12/02 06:22:03;;;;;;;;;;;;;;;-3.45;40.81;100671.44;5056631;28;19995;-56
2023/12/02 06:24:28;;;;;;;;;;;;;;;-3.48;40.29;100675.09;5056506;28;20011;-58
2023/12/02 06:26:54;;;;;;;;;;;;;;;-3.47;40.40;100679.41;5056989;28;20039;-58
2023/12/02 06:29:19;;;;;;;;;;;;;;;-3.46;40.07;100681.06;5056392;28;20331;-58
2023/12/02 06:31:48;;;;;;;;;;;;;;;-3.46;40.37;100681.06;5056571;28;19913;-57
2023/12/02 06:34:13;;;;;;;;;;;;;;;-3.44;40.67;100684.44;5056624;28;19917;-55
2023/12/02 06:36:38;;;;;;;;;;;;;;;-3.44;40.10;100679.19;5039331;28;20400;-57
2023/12/02 06:39:04;;;;;;;;;;;;;;;-3.45;40.57;100680.16;5036936;28;20374;-55
2023/12/02 06:41:29;;;;;;;;;;;;;;;-3.44;40.52;100680.97;5056280;28;19913;-56
2023/12/02 06:43:54;;;;;;;;;;;;;;;-3.45;39.91;100682.78;5056324;28;20243;-57
2023/12/02 06:46:23;;;;;;;;;;;;;;;-3.47;40.60;100687.28;5038265;28;19939;-56
2023/12/02 06:48:48;;;;;;;;;;;;;;;-3.49;40.23;100686.53;5038389;28;19923;-57
2023/12/02 06:51:14;;;;;;;;;;;;;;;-3.52;39.82;100690.19;5055908;28;19913;-58
2023/12/02 06:53:39;;;;;;;;;;;;;;;-3.53;39.93;100687.66;5056105;28;19917;-57
2023/12/02 06:56:05;;;;;;;;;;;;;;;-3.57;39.83;100688.78;5056008;28;19921;-57
2023/12/02 06:58:30;;;;;;;;;;;;;;;-3.58;40.15;100695.84;5054722;28;20279;-58
2023/12/02 07:00:56;;;;;;;;;;;;;;;-3.58;40.03;100690.59;5059012;28;20477;-58
2023/12/02 07:03:21;;;;;;;;;;;;;;;-3.61;39.73;100692.56;5061711;28;20380;-54
2023/12/02 07:05:46;;;;;;;;;;;;;;;-3.62;40.10;100685.59;5056284;28;19913;-58
2023/12/02 07:08:12;;;;;;;;;;;;;;;-3.58;40.86;100692.38;5056337;28;20007;-53
2023/12/02 07:10:37;;;;;;;;;;;;;;;-3.61;40.59;100693.38;5064364;28;19959;-55
2023/12/02 07:13:03;;;;;;;;;;;;;;;-3.61;39.99;100692.56;5075890;28;19916;-54
2023/12/02 07:15:28;;;;;;;;;;;;;;;-3.59;40.83;100694.13;5074074;28;20007;-57
2023/12/02 07:17:54;;;;;;;;;;;;;;;-3.59;40.86;100690.66;5055881;28;19913;-57
2023/12/02 07:20:19;;;;;;;;;;;;;;;-3.60;40.00;100700.34;5055416;28;20350;-57
2023/12/02 07:22:44;;;;;;;;;;;;;;;-3.64;39.82;100697.97;5055546;28;19913;-58
2023/12/02 07:25:10;;;;;;;;;;;;;;;-3.68;40.03;100701.75;5055387;28;20011;-57
2023/12/02 07:27:35;;;;;;;;;;;;;;;-3.72;39.74;100699.31;5055434;28;19913;-57
2023/12/02 07:30:00;;;;;;;;;;;;;;;-3.76;39.40;100700.44;5055009;28;19943;-58
2023/12/02 07:32:26;;;;;;;;;;;;;;;-3.76;39.67;100707.47;5055622;28;19974;-57
2023/12/02 07:34:51;;;;;;;;;;;;;;;-3.76;40.12;100708.31;5052868;28;19982;-58
2023/12/02 07:37:17;;;;;;;;;;;;;;;-3.77;39.75;100711.91;5051794;28;19919;-57
2023/12/02 07:39:42;;;;;;;;;;;;;;;-3.76;39.65;100721.44;5054919;28;19919;-58
2023/12/02 07:42:08;;;;;;;;;;;;;;;-3.76;40.39;100718.81;5055192;28;19935;-57
2023/12/02 07:44:33;;;;;;;;;;;;;;;-3.79;40.20;100716.41;5054942;28;19913;-57
2023/12/02 07:46:58;;;;;;;;;;;;;;;-3.77;40.58;100717.13;5055068;28;19962;-56
2023/12/02 07:49:24;;;;;;;;;;;;;;;-3.76;39.94;100715.34;5055391;28;20003;-55
2023/12/02 07:51:49;;;;;;;;;;;;;;;-3.78;40.39;100717.22;5055296;28;19913;-56
2023/12/02 07:54:15;;;;;;;;;;;;;;;-3.76;40.29;100717.97;5054120;28;20321;-54
2023/12/02 07:56:40;;;;;;;;;;;;;;;-3.77;40.10;100730.25;5055097;28;19920;-58
2023/12/02 07:59:05;;;;;;;;;;;;;;;-3.78;40.01;100730.34;5054938;28;19912;-58
2023/12/02 08:01:31;;;;;;;;;;;;;;;-3.81;39.74;100734.00;5054762;28;19920;-58
2023/12/02 08:03:57;;;;;;;;;;;;;;;-3.83;40.22;100735.88;5054838;28;19912;-54
2023/12/02 08:06:22;;;;;;;;;;;;;;;-3.82;39.53;100736.72;5058761;28;19912;-57
2023/12/02 08:08:47;;;;;;;;;;;;;;;-3.84;39.23;100734.19;5074742;28;19957;-54
2023/12/02 08:11:13;;;;;;;;;;;;;;;-3.84;39.85;100747.31;5056006;28;19921;-58
2023/12/02 08:13:38;;;;;;;;;;;;;;;-3.84;40.20;100743.84;5054828;28;20004;-56
2023/12/02 08:16:03;;;;;;;;;;;;;;;-3.82;39.82;100747.22;5054483;28;19963;-58
2023/12/02 08:18:29;;;;;;;;;;;;;;;-3.78;39.92;100738.22;5054644;28;19917;-56
2023/12/02 08:20:54;;;;;;;;;;;;;;;-3.77;40.43;100746.00;5054898;28;20337;-58
2023/12/02 08:23:20;;;;;;;;;;;;;;;-3.76;39.94;100749.47;5054859;28;19944;-57
2023/12/02 08:25:45;;;;;;;;;;;;;;;-3.74;39.81;100756.28;5054349;28;19963;-57
2023/12/02 08:28:10;;;;;;;;;;;;;;;-3.73;39.74;100755.38;5054230;28;19913;-56
2023/12/02 08:30:35;;;;;;;;;;;;;;;-3.70;40.27;100762.19;5054399;28;20250;-57
2023/12/02 08:33:03;;;;;;;;;;;;;;;-3.67;39.85;100756.78;5054441;28;20360;-58
2023/12/02 08:35:28;;;;;;;;;;;;;;;-3.63;40.16;100763.50;5061400;28;20321;-57
2023/12/02 08:37:54;;;;;;;;;;;;;;;-3.60;40.36;100768.59;5074575;28;19913;-58
2023/12/02 08:40:19;;;;;;;;;;;;;;;-3.59;40.20;100777.28;5074360;28;19912;-58
2023/12/02 08:42:45;;;;;;;;;;;;;;;-3.59;40.22;100775.50;5074145;28;19917;-56
2023/12/02 08:45:10;;;;;;;;;;;;;;;-3.55;40.19;100784.03;5074080;28;19912;-56
2023/12/02 08:47:36;;;;;;;;;;;;;;;-3.49;40.14;100783.66;5073987;28;19970;-53
2023/12/02 08:50:01;;;;;;;;;;;;;;;-3.43;40.37;100783.28;5074187;28;20277;-57
2023/12/02 08:52:26;;;;;;;;;;;;;;;-3.39;39.77;100787.38;5054391;28;19935;-57
2023/12/02 08:54:52;;;;;;;;;;;;;;;-3.35;40.34;100790.66;5053533;28;19986;-57
2023/12/02 08:57:17;;;;;;;;;;;;;;;-3.31;40.37;100787.78;5053553;28;19955;-56
2023/12/02 08:59:42;;;;;;;;;;;;;;;-3.23;40.55;100789.91;5053343;28;19912;-55
2023/12/02 09:02:08;;;;;;;;;;;;;;;-3.20;40.71;100796.75;5053595;28;19917;-58
2023/12/02 09:04:34;;;;;;;;;;;;;;;-3.15;40.17;100800.75;5061558;28;19923;-57
2023/12/02 09:06:59;;;;;;;;;;;;;;;-3.08;40.58;100803.84;5073535;28;19955;-58
2023/12/02 09:09:25;;;;;;;;;;;;;;;-3.05;39.61;100802.81;5073757;28;19912;-58
2023/12/02 09:11:50;;;;;;;;;;;;;;;-3.02;39.97;100797.38;5073325;28;20017;-57
2023/12/02 09:14:16;;;;;;;;;;;;;;;-2.96;40.46;100797.81;5073526;28;19924;-57
2023/12/02 09:16:46;;;;;;;;;;;;;;;-3.41;40.07;100717.56;5061875;28;19913;-55
2023/12/02 09:19:35;;;;;;;;;;;;;;;-2.82;39.94;100810.06;5053365;28;20362;-54
2023/12/02 09:22:00;;;;;;;;;;;;;;;-2.73;40.50;100809.47;5044407;28;20283;-57
2023/12/02 09:24:31;;;;;;;;;;;;;;;-2.66;40.25;100803.81;5053767;28;19913;-57
2023/12/02 09:26:57;;;;;;;;;;;;;;;-2.60;40.25;100806.91;5036037;28;19952;-57
2023/12/02 09:29:25;;;;;;;;;;;;;;;-2.54;40.43;100809.13;5054702;28;19924;-57
2023/12/02 09:31:50;;;;;;;;;;;;;;;-2.45;39.64;100812.94;5055288;28;20003;-57
2023/12/02 09:34:48;;;;;;;;;;;;;;;-2.37;39.53;100815.06;5054000;28;20016;-57
2023/12/02 09:37:32;;;;;;;;;;;;;;;-2.29;40.19;100809.28;5030128;28;19995;-57
2023/12/02 09:40:16;;;;;;;;;;;;;;;-2.21;39.91;100823.63;5053466;28;19919;-56
2023/12/02 09:42:42;;;;;;;;;;;;;;;-2.12;39.21;100816.03;5053426;28;20285;-57
2023/12/02 09:45:08;;;;;;;;;;;;;;;-2.05;39.28;100820.78;5053016;28;19912;-58
2023/12/02 09:47:39;;;;;;;;;;;;;;;-1.96;39.91;100809.63;5053161;28;19919;-58
2023/12/02 09:50:05;;;;;;;;;;;;;;;-1.87;39.93;100816.06;5053165;28;19948;-58
2023/12/02 09:52:30;;;;;;;;;;;;;;;-1.80;39.80;100817.34;5053523;28;20317;-58
2023/12/02 09:55:15;;;;;;;;;;;;;;;-1.70;38.80;100816.69;5052376;28;19917;-58
2023/12/02 09:57:44;;;;;;;;;;;;;;;-1.60;39.28;100823.00;5053351;28;20385;-57
2023/12/02 10:00:12;;;;;;;;;;;;;;;-1.51;38.46;100822.38;5067635;28;20281;-56
2023/12/02 10:02:58;;;;;;;;;;;;;;;-1.42;38.84;100815.63;5061076;28;19913;-57
2023/12/02 10:05:23;;;;;;;;;;;;;;;-1.34;39.04;100817.72;5031915;28;19913;-57
2023/12/02 10:08:00;;;;;;;;;;;;;;;-1.25;38.61;100819.69;5053337;28;20412;-57
2023/12/02 10:10:30;;;;;;;;;;;;;;;-1.16;38.71;100821.69;5053247;28;19913;-56
2023/12/02 10:12:55;;;;;;;;;;;;;;;-1.10;38.74;100820.41;5052808;28;19979;-57
2023/12/02 10:15:23;;;;;;;;;;;;;;;-1.05;38.10;100819.13;5053053;28;19921;-58
2023/12/02 10:17:52;;;;;;;;;;;;;;;-0.95;38.32;100823.72;5052629;28;19920;-57
2023/12/02 10:20:20;;;;;;;;;;;;;;;-0.88;37.61;100824.97;5052742;28;19917;-57
2023/12/02 10:22:47;;;;;;;;;;;;;;;-0.79;37.70;100825.16;5052634;28;19959;-57
2023/12/02 10:25:18;;;;;;;;;;;;;;;-0.71;38.50;100821.94;5052662;28;19913;-56
2023/12/02 10:27:43;;;;;;;;;;;;;;;-0.63;38.27;100816.13;5052926;28;19920;-56
2023/12/02 10:30:10;;;;;;;;;;;;;;;-0.59;38.13;100814.97;5052721;28;20289;-56
2023/12/02 10:32:51;;;;;;;;;;;;;;;-0.52;37.93;100820.59;5053486;28;19920;-55
2023/12/02 10:35:23;;;;;;;;;;;;;;;-0.43;37.63;100820.78;5062148;28;20357;-54
2023/12/02 10:38:15;;;;;;;;;;;;;;;-0.34;37.36;100824.53;5076604;28;19916;-56
2023/12/02 10:40:45;;;;;;;;;;;;;;;-0.27;37.70;100820.47;5060445;28;19920;-56
2023/12/02 10:43:22;;;;;;;;;;;;;;;-0.21;37.12;100822.63;5056253;28;19920;-58
2023/12/02 10:45:48;;;;;;;;;;;;;;;-0.13;37.05;100821.22;5056294;28;19916;-57
2023/12/02 10:48:15;;;;;;;;;;;;;;;-0.04;37.84;100828.44;5056201;28;19920;-57
2023/12/02 10:50:41;;;;;;;;;;;;;;;0.04;37.52;100826.09;5056199;28;19913;-57
2023/12/02 10:53:09;;;;;;;;;;;;;;;0.13;36.77;100822.75;5056215;28;19913;-56
2023/12/02 10:55:36;;;;;;;;;;;;;;;0.24;37.07;100826.34;5063091;28;19934;-57
2023/12/02 10:58:04;;;;;;;;;;;;;;;0.33;37.21;100821.19;5072299;28;19924;-58
2023/12/02 11:00:30;;;;;;;;;;;;;;;0.42;37.13;100818.81;5076366;28;20250;-58
2023/12/02 11:03:25;;;;;;;;;;;;;;;0.50;36.51;100817.25;5061634;28;19913;-57
2023/12/02 11:05:54;;;;;;;;;;;;;;;0.61;36.68;100815.56;5047077;28;19912;-58
2023/12/02 11:08:25;;;;;;;;;;;;;;;0.67;36.99;100820.38;5055924;28;20440;-58
2023/12/02 11:10:52;;;;;;;;;;;;;;;0.76;36.79;100822.28;5055773;28;20392;-58
2023/12/02 11:13:23;;;;;;;;;;;;;;;0.85;36.63;100826.00;5055834;28;19917;-58
2023/12/02 11:15:51;;;;;;;;;;;;;;;0.97;36.44;100822.41;5055791;28;19943;-56
2023/12/02 11:18:23;;;;;;;;;;;;;;;1.09;36.64;100824.03;5055633;28;19916;-58
2023/12/02 11:20:52;;;;;;;;;;;;;;;1.23;36.19;100824.75;5055763;28;19943;-57
2023/12/02 11:23:42;;;;;;;;;;;;;;;1.33;35.86;100821.22;5055617;28;19970;-57
2023/12/02 11:26:26;;;;;;;;;;;;;;;1.45;36.36;100827.34;5055647;28;19912;-58
2023/12/02 11:29:02;;;;;;;;;;;;;;;1.57;35.84;100824.66;5055596;28;19913;-59
2023/12/02 11:31:28;;;;;;;;;;;;;;;1.65;36.05;100820.38;5055215;28;20062;-58
2023/12/02 11:34:10;;;;;;;;;;;;;;;1.70;35.53;100828.78;5055530;28;19960;-58
2023/12/02 11:36:41;;;;;;;;;;;;;;;1.80;35.91;100823.59;5071920;28;19917;-58
2023/12/02 11:39:14;;;;;;;;;;;;;;;1.91;35.68;100812.06;5075508;28;19918;-58
2023/12/02 11:41:55;;;;;;;;;;;;;;;2.00;35.45;100818.41;5075470;28;19919;-57
2023/12/02 11:44:43;;;;;;;;;;;;;;;2.08;36.01;100816.81;5074590;28;19912;-58
2023/12/02 11:47:22;;;;;;;;;;;;;;;2.20;35.73;100819.38;5075472;28;19959;-58
2023/12/02 11:49:48;;;;;;;;;;;;;;;2.29;35.62;100822.06;5075136;28;19921;-59
2023/12/02 11:52:19;;;;;;;;;;;;;;;2.35;35.11;100812.75;5068235;28;19912;-58
2023/12/02 11:55:03;;;;;;;;;;;;;;;2.45;35.10;100811.00;5065622;28;19928;-58
2023/12/02 11:58:07;;;;;;;;;;;;;;;2.54;35.06;100819.13;5055164;28;19917;-58
2023/12/02 12:01:04;;;;;;;;;;;;;;;2.67;34.51;100814.44;4973889;28;19922;-59
2023/12/02 12:03:40;;;;;;;;;;;;;;;2.78;34.38;100817.00;4952034;28;19975;-59
2023/12/02 12:06:17;;;;;;;;;;;;;;;2.84;34.04;100811.16;5033890;28;19913;-58
2023/12/02 12:09:03;;;;;;;;;;;;;;;2.91;33.92;100822.06;5054730;28;19913;-58
2023/12/02 12:11:30;;;;;;;;;;;;;;;2.95;34.02;100819.97;5053780;28;19925;-59
2023/12/02 12:13:56;;;;;;;;;;;;;;;2.96;33.92;100822.50;5054389;28;19917;-58
2023/12/02 12:16:21;;;;;;;;;;;;;;;2.98;34.30;100819.72;5054241;28;20274;-59
2023/12/02 12:18:47;;;;;;;;;;;;;;;3.07;34.60;100829.50;5054414;28;19959;-58
2023/12/02 12:21:12;;;;;;;;;;;;;;;3.13;34.35;100828.97;5054528;28;20022;-57
2023/12/02 12:23:38;;;;;;;;;;;;;;;3.18;34.03;100826.75;5054423;28;20254;-58
2023/12/02 12:26:04;;;;;;;;;;;;;;;3.26;35.00;100828.72;5054321;28;20212;-58
2023/12/02 12:28:31;;;;;;;;;;;;;;;3.39;35.49;100833.75;5054357;28;19913;-57
2023/12/02 12:30:56;;;;;;;;;;;;;;;3.45;34.42;100831.38;5054356;28;19913;-58
2023/12/02 12:33:22;;;;;;;;;;;;;;;3.50;33.97;100830.97;5054009;28;19920;-58
2023/12/02 12:35:48;;;;;;;;;;;;;;;3.58;34.23;100827.63;5064004;28;19928;-58
2023/12/02 12:38:14;;;;;;;;;;;;;;;3.64;34.48;100837.69;5074177;28;19912;-58